Time;durP1;ratioP1;P1;durP2;ratioP2;P2;SDS_P1;SDS_P2;PMS_P1;PMS_P2;Temp;Humidity;BMP_temperature;BMP_pressure;BME280_temperature;BME280_humidity;BME280_pressure;Samples;Min_cycle;Max_cycle;Signal;HPM_P1;HPM_P2
2022/11/05 00:10:42;;;;;;;1999.90;999.90;;;13.20;99.90;;;;;;5155641;27;20491;-83
2022/11/05 00:18:38;;;;;;;1999.90;999.90;;;13.50;99.90;;;;;;5155289;27;20042;-83
2022/11/05 00:25:12;;;;;;;1999.90;999.90;;;13.40;99.90;;;;;;5155422;27;20467;-85
2022/11/05 00:26:34;;;;;;;1999.90;999.90;;;13.30;99.90;;;;;;5136901;27;20372;-79
2022/11/05 00:29:00;;;;;;;1999.90;999.90;;;13.10;99.90;;;;;;5156158;27;20084;-83
2022/11/05 00:31:26;;;;;;;1999.90;778.63;;;14.50;99.90;;;;;;5155736;27;20074;-81
2022/11/05 00:33:51;;;;;;;1999.90;999.90;;;13.20;99.90;;;;;;5103263;27;20043;-83
2022/11/05 00:36:17;;;;;;;1870.57;769.33;;;12.50;99.90;;;;;;5136715;27;20050;-83
2022/11/05 00:38:43;;;;;;;1827.22;114.65;;;13.40;99.90;;;;;;5136464;27;20038;-83
2022/11/05 00:41:08;;;;;;;1908.45;782.90;;;12.40;99.90;;;;;;5155025;27;20080;-83
2022/11/05 00:46:18;;;;;;;1927.47;772.25;;;12.50;99.90;;;;;;5155364;27;20115;-85
2022/11/05 00:51:28;;;;;;;1999.90;999.90;;;13.50;99.90;;;;;;5136964;27;20053;-83
2022/11/05 00:53:54;;;;;;;1999.90;799.28;;;13.60;99.90;;;;;;5136635;27;20046;-84
2022/11/05 00:56:19;;;;;;;1999.90;999.90;;;12.70;99.90;;;;;;5136666;27;20078;-83
2022/11/05 00:58:45;;;;;;;1999.90;825.30;;;13.60;99.90;;;;;;5136348;27;20540;-84
2022/11/05 01:01:11;;;;;;;1999.90;999.90;;;12.60;99.90;;;;;;5136955;27;20042;-84
2022/11/05 01:03:39;;;;;;;1951.38;286.67;;;13.50;99.90;;;;;;5137175;27;20051;-83
2022/11/05 01:06:13;;;;;;;1992.45;291.98;;;14.40;99.90;;;;;;5154546;27;20039;-83
2022/11/05 01:08:41;;;;;;;1865.07;123.80;;;13.30;99.90;;;;;;5136541;27;20099;-82
2022/11/05 01:11:08;;;;;;;1999.90;999.90;;;12.30;99.90;;;;;;5136609;27;20057;-84
2022/11/05 01:13:33;;;;;;;1999.90;999.90;;;12.50;99.90;;;;;;5154897;27;20598;-83
2022/11/05 01:16:05;;;;;;;1999.90;999.90;;;12.60;99.90;;;;;;5154179;27;20133;-83
2022/11/05 01:18:30;;;;;;;1999.90;999.90;;;12.80;99.90;;;;;;5136140;27;20125;-84
2022/11/05 01:20:56;;;;;;;1903.00;101.78;;;12.80;99.90;;;;;;5154332;27;20146;-84
2022/11/05 01:23:21;;;;;;;1551.45;127.63;;;12.40;99.90;;;;;;5154916;27;20061;-84
2022/11/05 01:25:47;;;;;;;1999.90;999.90;;;13.40;99.90;;;;;;5136232;27;20050;-84
2022/11/05 01:28:13;;;;;;;1999.90;999.90;;;12.40;99.90;;;;;;5153893;27;20103;-84
2022/11/05 01:30:39;;;;;;;1999.90;999.90;;;13.50;99.90;;;;;;5136418;27;20105;-83
2022/11/05 01:33:05;;;;;;;1999.90;999.90;;;12.90;99.90;;;;;;5154293;27;20053;-83
2022/11/05 01:35:30;;;;;;;1999.90;999.90;;;12.40;99.90;;;;;;5154253;27;20043;-84
2022/11/05 01:37:56;;;;;;;1999.90;999.90;;;12.90;99.90;;;;;;5153712;27;20043;-83
2022/11/05 01:40:23;;;;;;;1999.90;999.90;;;12.70;99.90;;;;;;5154746;27;20399;-84
2022/11/05 01:42:49;;;;;;;1999.90;999.90;;;13.20;99.90;;;;;;5135463;27;20091;-84
2022/11/05 01:45:22;;;;;;;1999.90;999.90;;;12.20;99.90;;;;;;5136168;27;20043;-84
2022/11/05 01:48:00;;;;;;;1999.90;999.90;;;13.20;99.90;;;;;;5135656;27;20543;-84
2022/11/05 01:50:48;;;;;;;1999.90;999.90;;;12.90;99.90;;;;;;5153755;27;20082;-84
2022/11/05 01:53:25;;;;;;;1999.90;999.90;;;13.20;99.90;;;;;;5154260;27;20318;-83
2022/11/05 01:56:08;;;;;;;1796.75;764.70;;;13.20;99.90;;;;;;5154121;27;20042;-84
2022/11/05 01:58:40;;;;;;;1999.90;999.90;;;12.70;99.90;;;;;;5154159;27;20126;-84
2022/11/05 02:01:05;;;;;;;1925.00;780.53;;;12.10;99.90;;;;;;5135429;27;20238;-84
2022/11/05 02:03:31;;;;;;;1999.90;999.90;;;12.20;99.90;;;;;;5135977;27;20125;-84
2022/11/05 02:06:00;;;;;;;1999.90;999.90;;;12.30;99.90;;;;;;5153278;27;20038;-83
2022/11/05 02:08:43;;;;;;;1999.90;787.03;;;12.30;99.90;;;;;;5153622;27;20039;-83
2022/11/05 02:11:11;;;;;;;1999.90;999.90;;;12.10;99.90;;;;;;5153684;27;20129;-83
2022/11/05 02:13:37;;;;;;;1901.55;789.65;;;12.30;99.90;;;;;;5136266;27;20098;-83
2022/11/05 02:16:44;;;;;;;1999.90;999.90;;;12.60;99.90;;;;;;5135035;27;20360;-83
2022/11/05 02:19:41;;;;;;;1999.90;999.90;;;13.00;99.90;;;;;;5153638;27;20396;-83
2022/11/05 02:22:22;;;;;;;1999.90;999.90;;;12.90;99.90;;;;;;5135124;27;20520;-83
2022/11/05 02:24:47;;;;;;;1843.68;767.20;;;12.30;99.90;;;;;;5153890;27;20047;-83
2022/11/05 02:27:38;;;;;;;1999.90;777.67;;;13.10;99.90;;;;;;5152700;27;20054;-83
2022/11/05 02:30:22;;;;;;;1999.90;786.95;;;12.10;99.90;;;;;;5153904;27;20039;-83
2022/11/05 02:33:00;;;;;;;1999.90;999.90;;;12.10;99.90;;;;;;5135922;27;20395;-83
2022/11/05 02:36:00;;;;;;;1999.90;999.90;;;12.70;99.90;;;;;;5135402;27;20043;-83
2022/11/05 02:39:10;;;;;;;1999.90;999.90;;;13.00;99.90;;;;;;5153135;27;20335;-83
2022/11/05 02:42:10;;;;;;;1999.90;999.90;;;13.10;99.90;;;;;;5124431;27;20049;-84
2022/11/05 02:44:47;;;;;;;1999.90;999.90;;;12.20;99.90;;;;;;5158226;27;20043;-84
2022/11/05 02:47:34;;;;;;;1999.90;166.23;;;12.80;99.90;;;;;;5156291;27;20190;-83
2022/11/05 02:50:18;;;;;;;1999.90;290.75;;;14.40;99.90;;;;;;5157317;27;20054;-82
2022/11/05 02:53:01;;;;;;;1999.90;999.90;;;12.40;99.90;;;;;;5139619;27;20050;-83
2022/11/05 02:55:41;;;;;;;1999.90;999.90;;;12.20;99.90;;;;;;5157703;27;20130;-83
2022/11/05 02:58:08;;;;;;;1999.90;999.90;;;12.40;99.90;;;;;;5156856;27;20038;-84
2022/11/05 03:00:40;;;;;;;1999.90;999.90;;;12.10;99.90;;;;;;5157388;27;20047;-84
2022/11/05 03:03:29;;;;;;;1999.90;999.90;;;12.50;99.90;;;;;;5139168;27;20051;-83
2022/11/05 03:06:25;;;;;;;1999.90;999.90;;;12.30;99.90;;;;;;5156448;27;20127;-83
2022/11/05 03:09:19;;;;;;;1999.90;999.90;;;12.80;99.90;;;;;;5157295;27;20043;-83
2022/11/05 03:11:54;;;;;;;1927.95;785.15;;;12.10;99.90;;;;;;5138912;27;20462;-84
2022/11/05 03:15:06;;;;;;;1999.90;591.20;;;13.10;99.90;;;;;;5157473;27;20050;-84
2022/11/05 03:18:21;;;;;;;1999.90;999.90;;;12.20;99.90;;;;;;5138794;27;20070;-83
2022/11/05 03:21:04;;;;;;;1641.40;193.90;;;13.00;99.90;;;;;;5137528;27;20107;-90
2022/11/05 03:23:34;;;;;;;1999.90;999.90;;;12.80;99.90;;;;;;5157068;27;20046;-90
2022/11/05 03:26:28;;;;;;;1957.60;556.47;;;13.10;99.90;;;;;;5156901;27;20426;-90
2022/11/05 03:29:18;;;;;;;1920.43;553.88;;;13.10;99.90;;;;;;5157412;27;20047;-90
2022/11/05 03:31:46;;;;;;;1999.90;284.45;;;12.70;99.90;;;;;;5156308;27;20047;-90
2022/11/05 03:34:13;;;;;;;;;;;12.60;99.90;;;;;;5156767;27;20043;-90
2022/11/05 03:36:51;;;;;;;1968.75;777.60;;;13.10;99.90;;;;;;5156513;27;20374;-90
2022/11/05 03:39:23;;;;;;;1999.90;999.90;;;12.20;99.90;;;;;;5138697;27;20428;-90
2022/11/05 03:41:51;;;;;;;1894.22;104.93;;;12.40;99.90;;;;;;5156425;27;20087;-90
2022/11/05 03:44:28;;;;;;;1954.82;771.60;;;11.90;99.90;;;;;;5138838;27;20173;-91
2022/11/05 03:47:02;;;;;;;1999.90;999.90;;;12.90;99.90;;;;;;5156461;27;20542;-90
2022/11/05 03:49:41;;;;;;;1893.80;762.58;;;12.00;99.90;;;;;;5156639;27;20463;-91
2022/11/05 03:52:16;;;;;;;1999.90;999.90;;;12.10;99.90;;;;;;5155009;27;20497;-91
2022/11/05 03:54:42;;;;;;;1652.72;523.65;;;12.10;99.90;;;;;;5157102;27;20475;-90
2022/11/05 03:57:25;;;;;;;1999.90;782.70;;;12.30;99.90;;;;;;5156497;27;20474;-90
2022/11/05 03:59:51;;;;;;;1710.57;163.25;;;12.90;99.90;;;;;;5156733;27;20050;-90
2022/11/05 04:02:24;;;;;;;1614.95;531.25;;;12.80;99.90;;;;;;5120865;27;20360;-89
2022/11/05 04:04:51;;;;;;;1946.70;167.65;;;12.80;99.90;;;;;;5138360;27;20255;-91
2022/11/05 04:17:05;;;;;;;1999.90;999.90;;;12.60;99.90;;;;;;5156317;27;20053;-90
2022/11/05 04:18:19;;;;;;;1999.90;999.90;;;14.00;99.90;;;;;;5155704;27;20047;-92
2022/11/05 04:26:14;;;;;;;1999.90;999.90;;;12.70;99.90;;;;;;5155545;27;20057;-90
2022/11/05 04:31:23;;;;;;;1816.07;766.22;;;12.60;99.90;;;;;;5155249;27;20686;-90
2022/11/05 04:33:49;;;;;;;1999.90;999.90;;;12.60;99.90;;;;;;5137916;27;20042;-89
2022/11/05 04:36:15;;;;;;;1999.90;999.90;;;12.80;99.90;;;;;;5136327;27;20043;-90
2022/11/05 04:38:40;;;;;;;1999.90;999.90;;;11.80;99.90;;;;;;5155739;27;20049;-91
2022/11/05 04:41:14;;;;;;;1999.90;999.90;;;12.00;99.90;;;;;;5119431;27;20072;-88
2022/11/05 04:43:40;;;;;;;1999.90;999.90;;;12.80;99.90;;;;;;5155525;27;20039;-91
2022/11/05 04:46:06;;;;;;;1999.90;999.90;;;12.70;99.90;;;;;;5155285;27;20096;-82
2022/11/05 04:48:32;;;;;;;1999.90;580.08;;;12.20;99.90;;;;;;5155616;27;20035;-91
2022/11/05 04:50:58;;;;;;;1680.75;768.20;;;11.90;99.90;;;;;;5119773;27;20178;-91
2022/11/05 04:53:23;;;;;;;1999.90;999.90;;;14.70;99.90;;;;;;5135745;27;20039;-92
2022/11/05 04:55:49;;;;;;;1368.38;538.95;;;11.70;99.90;;;;;;5119921;27;20462;-91
2022/11/05 04:58:16;;;;;;;1876.93;771.50;;;12.20;99.90;;;;;;5135650;27;20042;-87
2022/11/05 05:00:41;;;;;;;1999.90;999.90;;;12.40;99.90;;;;;;5154885;27;20494;-91
2022/11/05 05:03:07;;;;;;;1999.90;999.90;;;12.00;99.90;;;;;;5135433;27;20046;-91
2022/11/05 05:05:33;;;;;;;1999.90;999.90;;;12.30;99.90;;;;;;5153974;27;20058;-92
2022/11/05 05:08:05;;;;;;;1999.90;999.90;;;13.00;99.90;;;;;;5136941;27;20058;-91
2022/11/05 05:10:31;;;;;;;1878.35;790.33;;;11.90;99.90;;;;;;5136164;27;20054;-90
2022/11/05 05:12:57;;;;;;;1957.32;791.42;;;13.10;99.90;;;;;;5119013;27;20050;-91
2022/11/05 05:15:23;;;;;;;1999.90;999.90;;;12.00;99.90;;;;;;5136113;27;20486;-89
2022/11/05 05:17:52;;;;;;;1999.90;999.90;;;12.60;99.90;;;;;;5154875;27;20391;-92
2022/11/05 05:23:03;;;;;;;1999.90;999.90;;;11.70;99.90;;;;;;5153662;27;20482;-89
2022/11/05 05:25:29;;;;;;;1999.90;999.90;;;12.10;99.90;;;;;;5154001;27;20054;-90
2022/11/05 05:27:58;;;;;;;1999.90;999.90;;;11.90;99.90;;;;;;5154221;27;20050;-91
2022/11/05 05:30:24;;;;;;;1873.40;768.40;;;12.10;99.90;;;;;;5154356;27;20127;-90
2022/11/05 05:32:50;;;;;;;1991.80;773.47;;;11.60;99.90;;;;;;5154219;27;20049;-83
2022/11/05 05:35:16;;;;;;;1999.90;782.88;;;12.30;99.90;;;;;;5153981;27;20047;-82
2022/11/05 05:37:43;;;;;;;1999.90;999.90;;;11.70;99.90;;;;;;5135796;27;20078;-84
2022/11/05 05:40:09;;;;;;;1999.90;999.90;;;12.80;99.90;;;;;;5154321;27;20089;-84
2022/11/05 05:42:35;;;;;;;1999.90;999.90;;;12.10;99.90;;;;;;5135187;27;20042;-84
2022/11/05 05:45:01;;;;;;;1999.90;999.90;;;11.90;99.90;;;;;;5153735;27;20065;-84
2022/11/05 05:47:26;;;;;;;1999.90;652.65;;;14.50;99.90;;;;;;5153855;27;20070;-84
2022/11/05 05:49:52;;;;;;;1999.90;999.90;;;11.80;99.90;;;;;;5135647;27;20041;-84
2022/11/05 05:52:18;;;;;;;1999.90;999.90;;;13.30;99.90;;;;;;5153362;27;20463;-84
2022/11/05 05:54:43;;;;;;;1999.90;999.90;;;11.90;99.90;;;;;;5153892;27;20561;-84
2022/11/05 05:57:09;;;;;;;1999.90;999.90;;;11.70;99.90;;;;;;5153552;27;20499;-83
2022/11/05 05:59:35;;;;;;;1999.90;216.07;;;12.00;99.90;;;;;;5153117;27;20486;-83
2022/11/05 06:02:00;;;;;;;1999.90;999.90;;;13.40;99.90;;;;;;5153292;27;20042;-82
2022/11/05 06:04:26;;;;;;;1999.90;999.90;;;11.80;99.90;;;;;;5153554;27;20042;-82
2022/11/05 06:06:52;;;;;;;1999.90;999.90;;;12.60;99.90;;;;;;5135361;27;20049;-82
2022/11/05 06:09:17;;;;;;;1999.90;999.90;;;13.30;99.90;;;;;;5134841;27;20042;-81
2022/11/05 06:11:43;;;;;;;1999.90;999.90;;;11.90;99.90;;;;;;5153743;27;20525;-80
2022/11/05 06:14:13;;;;;;;1999.90;999.90;;;12.20;99.90;;;;;;5153278;27;20099;-81
2022/11/05 06:16:39;;;;;;;1999.90;999.90;;;12.00;99.90;;;;;;5133840;27;20054;-81
2022/11/05 06:19:06;;;;;;;1999.90;999.90;;;12.00;99.90;;;;;;5133014;27;20479;-80
2022/11/05 06:21:32;;;;;;;1999.90;999.90;;;12.20;99.90;;;;;;5152617;27;20053;-80
2022/11/05 06:24:00;;;;;;;1999.90;999.90;;;12.60;99.90;;;;;;5153770;27;20047;-80
2022/11/05 06:26:25;;;;;;;;;;;12.10;99.90;;;;;;5152488;27;20483;-81
2022/11/05 06:28:51;;;;;;;1999.90;999.90;;;13.20;99.90;;;;;;5153675;27;20009;-81
2022/11/05 06:31:16;;;;;;;1999.90;999.90;;;12.10;99.90;;;;;;5134573;27;20035;-81
2022/11/05 06:33:42;;;;;;;1999.90;999.90;;;13.20;99.90;;;;;;5153637;27;20086;-81
2022/11/05 06:36:14;;;;;;;1999.90;999.90;;;13.60;99.90;;;;;;5133672;27;20123;-80
2022/11/05 06:38:40;;;;;;;1245.00;527.28;;;13.10;99.90;;;;;;5153233;27;20099;-81
2022/11/05 06:41:06;;;;;;;1999.90;999.90;;;12.20;99.90;;;;;;5154198;27;20436;-81
2022/11/05 06:43:32;;;;;;;1999.90;822.42;;;13.00;99.90;;;;;;5134985;27;20043;-82
2022/11/05 06:46:00;;;;;;;1999.90;999.90;;;11.90;99.90;;;;;;5153679;27;20046;-82
2022/11/05 06:48:27;;;;;;;1877.70;763.65;;;12.90;99.90;;;;;;5134586;27;20043;-81
2022/11/05 06:50:53;;;;;;;1999.90;999.90;;;11.90;99.90;;;;;;5153350;27;20479;-81
2022/11/05 06:53:19;;;;;;;1602.82;530.50;;;13.60;99.90;;;;;;5153137;27;20050;-79
2022/11/05 06:55:46;;;;;;;1916.47;139.60;;;13.00;99.90;;;;;;5152533;27;20042;-82
2022/11/05 06:58:13;;;;;;;1999.90;999.90;;;12.00;99.90;;;;;;5152685;27;20039;-83
2022/11/05 07:00:39;;;;;;;1999.90;999.90;;;12.60;99.90;;;;;;5153212;27;20383;-82
2022/11/05 07:03:09;;;;;;;1382.65;66.57;;;11.90;99.90;;;;;;5153117;27;20104;-81
2022/11/05 07:05:40;;;;;;;1999.90;999.90;;;13.10;99.90;;;;;;5152366;27;20478;-82
2022/11/05 07:08:05;;;;;;;1999.90;999.90;;;12.60;99.90;;;;;;5153835;27;20039;-83
2022/11/05 07:10:31;;;;;;;1999.90;809.42;;;12.90;99.90;;;;;;5151796;27;20130;-82
2022/11/05 07:12:57;;;;;;;1900.03;771.97;;;12.20;99.90;;;;;;5152913;27;20543;-82
2022/11/05 07:15:23;;;;;;;1999.90;999.90;;;12.80;99.90;;;;;;5117509;27;20095;-82
2022/11/05 07:17:49;;;;;;;1811.95;763.13;;;12.50;99.90;;;;;;5153820;27;20061;-81
2022/11/05 07:20:15;;;;;;;1999.90;999.90;;;12.80;99.90;;;;;;5135179;27;20088;-81
2022/11/05 07:22:41;;;;;;;1999.90;999.90;;;12.50;99.90;;;;;;5133896;27;20647;-81
2022/11/05 07:25:07;;;;;;;909.28;35.83;;;13.10;99.90;;;;;;5152795;27;20081;-82
2022/11/05 07:27:42;;;;;;;1867.93;762.15;;;12.10;99.90;;;;;;5135571;27;20459;-81
2022/11/05 07:30:09;;;;;;;1378.13;513.80;;;13.90;99.90;;;;;;5157312;27;20287;-81
2022/11/05 07:32:41;;;;;;;1951.93;777.50;;;13.10;99.90;;;;;;5155026;27;20115;-79
2022/11/05 07:35:08;;;;;;;1999.90;999.90;;;12.20;99.90;;;;;;5155814;27;20088;-82
2022/11/05 07:37:42;;;;;;;1999.90;371.20;;;12.30;99.90;;;;;;5138137;27;20067;-82
2022/11/05 07:40:09;;;;;;;1999.90;999.90;;;13.20;99.90;;;;;;5156582;27;20046;-82
2022/11/05 07:42:34;;;;;;;953.70;36.88;;;13.10;99.90;;;;;;5156040;27;20053;-82
2022/11/05 07:45:00;;;;;;;1756.68;296.58;;;12.30;99.90;;;;;;5156504;27;20046;-82
2022/11/05 07:47:26;;;;;;;1999.90;999.90;;;13.10;99.90;;;;;;5156882;27;20376;-82
2022/11/05 07:49:51;;;;;;;1999.90;999.90;;;13.30;99.90;;;;;;5155806;27;20091;-82
2022/11/05 07:52:17;;;;;;;1931.55;772.08;;;13.50;99.90;;;;;;5138432;27;20039;-82
2022/11/05 07:54:43;;;;;;;1999.90;999.90;;;12.40;99.90;;;;;;5156579;27;20483;-81
2022/11/05 07:57:08;;;;;;;1999.90;801.25;;;12.40;99.90;;;;;;5156646;27;20098;-82
2022/11/05 07:59:34;;;;;;;1999.90;999.90;;;12.90;99.90;;;;;;5156162;27;20089;-83
2022/11/05 08:02:00;;;;;;;1659.18;81.78;;;12.70;99.90;;;;;;5156735;27;20050;-83
2022/11/05 08:04:25;;;;;;;1999.90;794.90;;;13.70;99.90;;;;;;5138592;27;20039;-83
2022/11/05 08:06:51;;;;;;;1999.90;999.90;;;13.10;99.90;;;;;;5137865;27;20044;-83
2022/11/05 08:09:16;;;;;;;1999.90;999.90;;;12.80;99.90;;;;;;5156734;27;20453;-84
2022/11/05 08:11:42;;;;;;;1964.20;777.25;;;12.70;99.90;;;;;;5137870;27;20042;-82
2022/11/05 08:14:08;;;;;;;1999.90;999.90;;;13.20;99.90;;;;;;5157082;27;20487;-82
2022/11/05 08:16:33;;;;;;;1999.90;768.80;;;13.90;99.90;;;;;;5137539;27;20395;-83
2022/11/05 08:18:59;;;;;;;1620.78;521.75;;;13.10;99.90;;;;;;5156441;27;20039;-83
2022/11/05 08:21:25;;;;;;;1735.22;552.53;;;13.00;99.90;;;;;;5137711;27;20122;-83
2022/11/05 08:23:50;;;;;;;1871.32;762.28;;;12.90;99.90;;;;;;5156576;27;20049;-82
2022/11/05 08:26:16;;;;;;;1644.40;72.57;;;13.20;99.90;;;;;;5137210;27;20051;-83
2022/11/05 08:28:42;;;;;;;1999.90;999.90;;;14.20;99.90;;;;;;5137717;27;20088;-83
2022/11/05 08:31:07;;;;;;;1999.90;999.90;;;14.40;99.90;;;;;;5156857;27;20085;-83
2022/11/05 08:33:33;;;;;;;1999.90;999.90;;;14.30;99.90;;;;;;5137928;27;20124;-81
2022/11/05 08:36:04;;;;;;;1999.90;999.90;;;13.30;99.90;;;;;;5155641;27;20050;-82
2022/11/05 08:38:30;;;;;;;1999.90;999.90;;;14.60;99.90;;;;;;5156330;27;20037;-83
2022/11/05 08:40:56;;;;;;;1999.90;999.90;;;15.40;99.90;;;;;;5138308;27;20070;-81
2022/11/05 08:43:22;;;;;;;1999.90;799.97;;;14.30;99.90;;;;;;5157118;27;20131;-83
2022/11/05 08:45:48;;;;;;;1999.90;999.90;;;13.50;99.90;;;;;;5156655;27;20086;-84
2022/11/05 08:48:15;;;;;;;1785.75;759.47;;;13.80;99.90;;;;;;5139649;27;20051;-83
2022/11/05 08:50:42;;;;;;;1868.32;321.77;;;14.10;99.90;;;;;;5156937;27;20046;-83
2022/11/05 08:53:09;;;;;;;1928.90;380.70;;;15.00;99.90;;;;;;5161009;27;20050;-83
2022/11/05 08:55:35;;;;;;;1988.57;774.92;;;15.00;99.90;;;;;;5170623;27;20308;-81
2022/11/05 08:58:03;;;;;;;1999.90;999.90;;;14.40;99.90;;;;;;5153544;27;20103;-82
2022/11/05 09:00:30;;;;;;;1999.90;999.90;;;15.10;99.90;;;;;;5167256;27;20106;-82
2022/11/05 09:03:00;;;;;;;1999.90;999.90;;;14.90;99.90;;;;;;5164406;27;20034;-83
2022/11/05 09:05:28;;;;;;;1508.53;111.28;;;13.80;99.90;;;;;;5155081;27;20074;-82
2022/11/05 09:07:53;;;;;;;1701.33;379.03;;;15.30;99.90;;;;;;5154827;27;20475;-83
2022/11/05 09:10:19;;;;;;;1360.88;518.17;;;15.00;99.90;;;;;;5153786;27;20283;-83
2022/11/05 09:12:45;;;;;;;1999.90;999.90;;;14.60;99.90;;;;;;5154631;27;20534;-83
2022/11/05 09:15:11;;;;;;;1999.90;999.90;;;15.10;99.90;;;;;;5136496;27;20039;-83
2022/11/05 09:17:36;;;;;;;1999.90;999.90;;;15.50;99.90;;;;;;5153278;27;20383;-82
2022/11/05 09:20:03;;;;;;;1999.90;999.90;;;15.40;99.90;;;;;;5154379;27;20042;-82
2022/11/05 09:22:29;;;;;;;1765.27;680.23;;;15.50;99.90;;;;;;5153814;27;20058;-83
2022/11/05 09:24:55;;;;;;;1999.90;999.90;;;14.30;99.90;;;;;;5153852;27;20279;-83
2022/11/05 09:27:21;;;;;;;1686.47;756.20;;;14.70;99.90;;;;;;5154141;27;20047;-83
2022/11/05 09:29:47;;;;;;;1999.90;999.90;;;15.10;99.90;;;;;;5154407;27;20051;-83
2022/11/05 09:32:17;;;;;;;1999.90;999.90;;;16.10;99.90;;;;;;5153950;27;20470;-83
2022/11/05 09:34:43;;;;;;;1999.90;999.90;;;15.60;99.90;;;;;;5154083;27;20042;-83
2022/11/05 09:37:09;;;;;;;1999.90;999.90;;;15.40;99.90;;;;;;5153671;27;20095;-83
2022/11/05 09:39:35;;;;;;;1999.90;999.90;;;15.60;99.90;;;;;;5154868;27;20042;-83
2022/11/05 09:42:07;;;;;;;1999.90;999.90;;;16.10;99.90;;;;;;5153842;27;20057;-83
2022/11/05 09:44:49;;;;;;;1999.90;999.90;;;16.00;99.90;;;;;;5153447;27;20403;-83
2022/11/05 09:47:24;;;;;;;1999.90;999.90;;;16.00;99.90;;;;;;5135885;27;20065;-83
2022/11/05 09:49:53;;;;;;;1999.90;999.90;;;16.90;99.90;;;;;;5152969;27;20296;-85
2022/11/05 09:52:22;;;;;;;1999.90;999.90;;;16.50;99.90;;;;;;5153565;27;20050;-84
2022/11/05 09:54:49;;;;;;;1999.90;999.90;;;17.30;99.90;;;;;;5134831;27;20451;-82
2022/11/05 09:57:24;;;;;;;1999.90;999.90;;;16.20;99.90;;;;;;5153615;27;20127;-82
2022/11/05 10:00:15;;;;;;;1999.90;999.90;;;17.30;99.90;;;;;;5153857;27;20047;-83
2022/11/05 10:02:49;;;;;;;1999.90;999.90;;;16.60;99.90;;;;;;5153697;27;20055;-83
2022/11/05 10:05:15;;;;;;;1999.90;999.90;;;16.90;99.90;;;;;;5117908;27;20049;-83
2022/11/05 10:07:50;;;;;;;1999.90;999.90;;;16.70;99.90;;;;;;5153548;27;20039;-83
2022/11/05 10:10:44;;;;;;;1999.90;999.90;;;16.30;99.90;;;;;;5153452;27;20383;-82
2022/11/05 10:13:16;;;;;;;1999.90;999.90;;;16.40;99.90;;;;;;5110239;27;20055;-83
2022/11/05 10:16:06;;;;;;;1999.90;999.90;;;17.10;99.90;;;;;;5153905;27;20054;-81
2022/11/05 10:18:35;;;;;;;1999.90;999.90;;;17.10;99.90;;;;;;5152299;27;20106;-81
2022/11/05 10:21:02;;;;;;;1999.90;999.90;;;16.80;99.90;;;;;;5152636;27;20248;-81
2022/11/05 10:23:28;;;;;;;1999.90;999.90;;;16.30;99.90;;;;;;5153834;27;20466;-81
2022/11/05 10:26:08;;;;;;;1999.90;999.90;;;16.00;99.90;;;;;;5134767;27;20104;-81
2022/11/05 10:28:35;;;;;;;1999.90;999.90;;;16.00;99.90;;;;;;5152910;27;20059;-80
2022/11/05 10:31:10;;;;;;;1999.90;999.90;;;16.00;99.90;;;;;;5152665;27;20091;-82
2022/11/05 10:34:00;;;;;;;1999.90;999.90;;;16.20;99.90;;;;;;5136276;27;20043;-82
2022/11/05 10:36:30;;;;;;;;;;;16.20;99.90;;;;;;5153652;27;20054;-83
2022/11/05 10:39:04;;;;;;;1999.90;999.90;;;16.50;99.90;;;;;;5153107;27;19919;-85
2022/11/05 10:41:42;;;;;;;1999.90;999.90;;;16.10;99.90;;;;;;5153408;27;20049;-82
2022/11/05 10:44:29;;;;;;;1999.90;999.90;;;16.50;99.90;;;;;;5152743;27;20047;-83
2022/11/05 10:47:32;;;;;;;1999.90;999.90;;;16.50;99.90;;;;;;5153730;27;20054;-83
2022/11/05 10:50:15;;;;;;;1999.90;999.90;;;16.50;99.90;;;;;;5152415;27;20042;-83
2022/11/05 10:52:50;;;;;;;1999.90;999.90;;;16.50;99.90;;;;;;5153251;27;20038;-82
2022/11/05 10:55:20;;;;;;;1999.90;999.90;;;16.40;99.90;;;;;;5135167;27;20121;-82
2022/11/05 10:57:47;;;;;;;1999.90;999.90;;;16.40;99.90;;;;;;5153725;27;20372;-82
2022/11/05 11:00:13;;;;;;;1999.90;999.90;;;16.40;99.90;;;;;;5134385;27;20057;-82
2022/11/05 11:02:41;;;;;;;1999.90;999.90;;;16.60;99.90;;;;;;5155091;27;20082;-82
2022/11/05 11:05:09;;;;;;;1999.90;999.90;;;16.60;99.90;;;;;;5138499;27;20741;-82
2022/11/05 11:07:35;;;;;;;1999.90;999.90;;;16.50;99.90;;;;;;5121995;27;20043;-82
2022/11/05 11:10:01;;;;;;;1999.90;999.90;;;16.60;99.90;;;;;;5138134;27;20054;-82
2022/11/05 11:12:34;;;;;;;1999.90;999.90;;;16.60;99.90;;;;;;5156468;27;20053;-82
2022/11/05 11:15:11;;;;;;;1999.90;999.90;;;16.60;99.90;;;;;;5157280;27;20482;-82
2022/11/05 11:17:37;;;;;;;1999.90;999.90;;;16.80;99.90;;;;;;5156705;27;20046;-82
2022/11/05 11:20:24;;;;;;;1999.90;999.90;;;16.70;99.90;;;;;;5156443;27;20486;-82
2022/11/05 11:23:08;;;;;;;1999.90;999.90;;;16.70;99.90;;;;;;5138168;27;20474;-82
2022/11/05 11:25:57;;;;;;;1999.90;999.90;;;16.70;99.90;;;;;;5138864;27;20051;-82
2022/11/05 11:28:32;;;;;;;1999.90;999.90;;;16.80;99.90;;;;;;5156352;27;20054;-82
2022/11/05 11:31:04;;;;;;;1999.90;999.90;;;16.70;99.90;;;;;;5156459;27;20047;-82
2022/11/05 11:33:31;;;;;;;1999.90;999.90;;;16.70;99.90;;;;;;5157136;27;20086;-81
2022/11/05 11:35:58;;;;;;;1999.90;999.90;;;16.70;99.90;;;;;;5120482;27;20047;-82
2022/11/05 11:38:25;;;;;;;1999.90;999.90;;;16.70;99.90;;;;;;5138417;27;20041;-81
2022/11/05 11:41:19;;;;;;;1999.90;999.90;;;16.70;99.90;;;;;;5157011;27;20047;-82
2022/11/05 11:43:45;;;;;;;1999.90;999.90;;;16.80;99.90;;;;;;5138407;27;20094;-82
2022/11/05 11:46:15;;;;;;;1999.90;999.90;;;16.80;99.90;;;;;;5156618;27;20338;-81
2022/11/05 11:48:44;;;;;;;1999.90;999.90;;;16.90;99.90;;;;;;5157141;27;20042;-82
2022/11/05 11:51:24;;;;;;;1999.90;999.90;;;17.00;99.90;;;;;;5156401;27;20050;-82
2022/11/05 11:53:55;;;;;;;1999.90;999.90;;;17.00;99.90;;;;;;5156566;27;20053;-82
2022/11/05 11:56:21;;;;;;;1999.90;999.90;;;17.10;99.90;;;;;;5156905;27;20051;-81
2022/11/05 11:58:52;;;;;;;1999.90;999.90;;;17.00;99.90;;;;;;5138452;27;20042;-82
2022/11/05 12:01:33;;;;;;;1999.90;999.90;;;16.90;99.90;;;;;;5138182;27;20133;-82
2022/11/05 12:04:08;;;;;;;1999.90;999.90;;;16.90;99.90;;;;;;5155918;27;20047;-82
2022/11/05 12:06:43;;;;;;;1999.90;999.90;;;16.90;99.90;;;;;;5156371;27;20106;-82
2022/11/05 12:09:48;;;;;;;1999.90;999.90;;;16.90;99.90;;;;;;5138324;27;20053;-82
2022/11/05 12:12:16;;;;;;;1999.90;999.90;;;16.80;99.90;;;;;;5087330;27;20058;-82
2022/11/05 12:14:58;;;;;;;1999.90;999.90;;;16.70;99.90;;;;;;5137239;27;20175;-82
2022/11/05 12:17:44;;;;;;;1999.90;999.90;;;16.80;99.90;;;;;;5137183;27;20046;-82
2022/11/05 12:20:22;;;;;;;1999.90;999.90;;;16.50;99.90;;;;;;5156080;27;20107;-82
2022/11/05 12:23:19;;;;;;;1999.90;999.90;;;16.60;99.90;;;;;;5156590;27;20102;-82
2022/11/05 12:26:00;;;;;;;1999.90;999.90;;;16.60;99.90;;;;;;5155710;27;20047;-81
2022/11/05 12:28:35;;;;;;;1999.90;999.90;;;16.60;12.00;;;;;;5155990;27;20134;-81
2022/11/05 12:31:35;;;;;;;1999.90;999.90;;;16.60;1.00;;;;;;5155687;27;20051;-82
2022/11/05 12:34:17;;;;;;;1999.90;999.90;;;16.60;99.90;;;;;;5155529;27;20179;-82
2022/11/05 12:37:07;;;;;;;1999.90;999.90;;;16.60;99.90;;;;;;5136181;27;20042;-82
2022/11/05 12:39:56;;;;;;;1999.90;999.90;;;16.60;99.90;;;;;;5156255;27;20069;-82
2022/11/05 12:42:34;;;;;;;1999.90;999.90;;;16.60;92.30;;;;;;5129108;27;20157;-82
2022/11/05 12:45:08;;;;;;;;;;;16.50;1.00;;;;;;5155914;27;20046;-83
2022/11/05 12:47:56;;;;;;;1999.90;999.90;;;16.30;99.90;;;;;;5155386;27;19973;-82
2022/11/05 12:50:48;;;;;;;1999.90;999.90;;;16.10;99.90;;;;;;5154825;27;20046;-82
2022/11/05 12:53:42;;;;;;;1999.90;999.90;;;16.10;99.90;;;;;;5119745;27;20046;-81
2022/11/05 12:56:28;;;;;;;1999.90;999.90;;;16.00;99.90;;;;;;5154051;27;20042;-81
2022/11/05 12:59:10;;;;;;;1999.90;999.90;;;16.10;99.90;;;;;;5139506;27;20524;-82
2022/11/05 13:01:42;;;;;;;1999.90;999.90;;;16.10;99.90;;;;;;5154702;27;20043;-81
2022/11/05 13:04:30;;;;;;;1999.90;999.90;;;16.10;99.90;;;;;;5118797;27;20543;-82
2022/11/05 13:06:57;;;;;;;1999.90;999.90;;;16.10;99.90;;;;;;5153203;27;20046;-81